sensor_id;sensor_type;location;lat;lon;timestamp;P1;durP1;ratioP1;P2;durP2;ratioP2
10845;SDS011;5476;51.540;7.186;2023-03-14T00:02:21;6.77;;;2.17;;
10845;SDS011;5476;51.540;7.186;2023-03-14T00:04:48;4.57;;;1.97;;
10845;SDS011;5476;51.540;7.186;2023-03-14T00:07:16;2.50;;;1.70;;
10845;SDS011;5476;51.540;7.186;2023-03-14T00:09:44;3.60;;;1.87;;
10845;SDS011;5476;51.540;7.186;2023-03-14T00:12:11;5.30;;;1.73;;
10845;SDS011;5476;51.540;7.186;2023-03-14T00:14:39;5.27;;;1.80;;
10845;SDS011;5476;51.540;7.186;2023-03-14T00:17:07;5.60;;;1.70;;
10845;SDS011;5476;51.540;7.186;2023-03-14T00:19:34;6.43;;;1.50;;
10845;SDS011;5476;51.540;7.186;2023-03-14T00:22:01;5.57;;;1.87;;
10845;SDS011;5476;51.540;7.186;2023-03-14T00:24:29;4.87;;;1.90;;
10845;SDS011;5476;51.540;7.186;2023-03-14T00:26:57;3.93;;;1.60;;
10845;SDS011;5476;51.540;7.186;2023-03-14T00:29:24;3.43;;;1.67;;
10845;SDS011;5476;51.540;7.186;2023-03-14T00:31:52;4.53;;;1.40;;
10845;SDS011;5476;51.540;7.186;2023-03-14T00:34:19;3.90;;;1.73;;
10845;SDS011;5476;51.540;7.186;2023-03-14T00:36:46;5.43;;;1.93;;
10845;SDS011;5476;51.540;7.186;2023-03-14T00:39:13;8.87;;;1.73;;
10845;SDS011;5476;51.540;7.186;2023-03-14T00:41:41;4.53;;;1.90;;
10845;SDS011;5476;51.540;7.186;2023-03-14T00:44:09;4.63;;;1.57;;
10845;SDS011;5476;51.540;7.186;2023-03-14T00:46:40;6.20;;;1.93;;
10845;SDS011;5476;51.540;7.186;2023-03-14T00:49:07;4.67;;;1.60;;
10845;SDS011;5476;51.540;7.186;2023-03-14T00:51:34;6.30;;;1.67;;
10845;SDS011;5476;51.540;7.186;2023-03-14T00:54:01;4.07;;;1.47;;
10845;SDS011;5476;51.540;7.186;2023-03-14T00:56:28;6.30;;;1.47;;
10845;SDS011;5476;51.540;7.186;2023-03-14T00:58:56;3.10;;;1.60;;
10845;SDS011;5476;51.540;7.186;2023-03-14T01:01:24;3.73;;;1.50;;
10845;SDS011;5476;51.540;7.186;2023-03-14T01:03:52;4.47;;;1.37;;
10845;SDS011;5476;51.540;7.186;2023-03-14T01:06:20;3.83;;;1.30;;
10845;SDS011;5476;51.540;7.186;2023-03-14T01:08:49;3.03;;;1.40;;
10845;SDS011;5476;51.540;7.186;2023-03-14T01:11:17;3.23;;;1.27;;
10845;SDS011;5476;51.540;7.186;2023-03-14T01:13:46;4.03;;;1.53;;
10845;SDS011;5476;51.540;7.186;2023-03-14T01:16:13;2.13;;;1.30;;
10845;SDS011;5476;51.540;7.186;2023-03-14T01:18:42;3.17;;;1.10;;
10845;SDS011;5476;51.540;7.186;2023-03-14T01:21:10;3.50;;;1.00;;
10845;SDS011;5476;51.540;7.186;2023-03-14T01:23:39;3.77;;;1.10;;
10845;SDS011;5476;51.540;7.186;2023-03-14T01:26:08;2.33;;;1.00;;
10845;SDS011;5476;51.540;7.186;2023-03-14T01:28:36;2.50;;;1.00;;
10845;SDS011;5476;51.540;7.186;2023-03-14T01:31:03;2.93;;;1.13;;
10845;SDS011;5476;51.540;7.186;2023-03-14T01:33:30;4.10;;;1.10;;
10845;SDS011;5476;51.540;7.186;2023-03-14T01:35:59;1.60;;;0.90;;
10845;SDS011;5476;51.540;7.186;2023-03-14T01:38:27;4.50;;;0.97;;
10845;SDS011;5476;51.540;7.186;2023-03-14T01:40:54;3.17;;;1.00;;
10845;SDS011;5476;51.540;7.186;2023-03-14T01:43:21;3.67;;;1.00;;
10845;SDS011;5476;51.540;7.186;2023-03-14T01:48:35;2.80;;;1.10;;
10845;SDS011;5476;51.540;7.186;2023-03-14T01:51:04;2.77;;;1.10;;
10845;SDS011;5476;51.540;7.186;2023-03-14T01:53:32;5.50;;;1.20;;
10845;SDS011;5476;51.540;7.186;2023-03-14T01:56:00;4.80;;;1.10;;
10845;SDS011;5476;51.540;7.186;2023-03-14T01:58:28;3.37;;;0.93;;
10845;SDS011;5476;51.540;7.186;2023-03-14T02:00:59;4.70;;;1.13;;
10845;SDS011;5476;51.540;7.186;2023-03-14T02:03:28;5.10;;;1.40;;
10845;SDS011;5476;51.540;7.186;2023-03-14T02:05:56;3.17;;;1.47;;
10845;SDS011;5476;51.540;7.186;2023-03-14T02:08:27;3.97;;;1.47;;
10845;SDS011;5476;51.540;7.186;2023-03-14T02:14:21;3.27;;;1.57;;
10845;SDS011;5476;51.540;7.186;2023-03-14T02:16:53;3.67;;;1.73;;
10845;SDS011;5476;51.540;7.186;2023-03-14T02:19:22;4.80;;;1.33;;
10845;SDS011;5476;51.540;7.186;2023-03-14T02:22:00;6.67;;;1.53;;
10845;SDS011;5476;51.540;7.186;2023-03-14T02:24:36;2.50;;;1.10;;
10845;SDS011;5476;51.540;7.186;2023-03-14T02:27:11;5.23;;;1.17;;
10845;SDS011;5476;51.540;7.186;2023-03-14T02:29:39;6.53;;;1.50;;
10845;SDS011;5476;51.540;7.186;2023-03-14T02:32:07;3.37;;;1.17;;
10845;SDS011;5476;51.540;7.186;2023-03-14T02:34:35;5.67;;;1.57;;
10845;SDS011;5476;51.540;7.186;2023-03-14T02:37:02;5.23;;;1.27;;
10845;SDS011;5476;51.540;7.186;2023-03-14T02:39:31;3.90;;;1.23;;
10845;SDS011;5476;51.540;7.186;2023-03-14T02:42:03;3.07;;;1.13;;
10845;SDS011;5476;51.540;7.186;2023-03-14T02:44:31;5.77;;;1.17;;
10845;SDS011;5476;51.540;7.186;2023-03-14T02:47:00;4.47;;;1.17;;
10845;SDS011;5476;51.540;7.186;2023-03-14T02:49:27;4.03;;;1.30;;
10845;SDS011;5476;51.540;7.186;2023-03-14T02:51:56;4.23;;;1.27;;
10845;SDS011;5476;51.540;7.186;2023-03-14T02:54:23;4.80;;;1.40;;
10845;SDS011;5476;51.540;7.186;2023-03-14T02:56:50;7.30;;;1.83;;
10845;SDS011;5476;51.540;7.186;2023-03-14T02:59:17;6.67;;;1.50;;
10845;SDS011;5476;51.540;7.186;2023-03-14T03:01:46;3.93;;;1.60;;
10845;SDS011;5476;51.540;7.186;2023-03-14T03:04:13;7.37;;;1.90;;
10845;SDS011;5476;51.540;7.186;2023-03-14T03:06:40;5.67;;;1.40;;
10845;SDS011;5476;51.540;7.186;2023-03-14T03:09:07;6.20;;;1.33;;
10845;SDS011;5476;51.540;7.186;2023-03-14T03:11:34;5.47;;;1.80;;
10845;SDS011;5476;51.540;7.186;2023-03-14T03:14:02;6.10;;;1.47;;
10845;SDS011;5476;51.540;7.186;2023-03-14T03:16:29;6.57;;;1.60;;
10845;SDS011;5476;51.540;7.186;2023-03-14T03:18:57;4.77;;;1.40;;
10845;SDS011;5476;51.540;7.186;2023-03-14T03:21:25;5.50;;;1.57;;
10845;SDS011;5476;51.540;7.186;2023-03-14T03:23:52;3.37;;;1.70;;
10845;SDS011;5476;51.540;7.186;2023-03-14T03:26:19;7.77;;;1.77;;
10845;SDS011;5476;51.540;7.186;2023-03-14T03:28:46;5.83;;;1.47;;
10845;SDS011;5476;51.540;7.186;2023-03-14T03:31:13;5.37;;;1.30;;
10845;SDS011;5476;51.540;7.186;2023-03-14T03:33:41;9.37;;;1.50;;
10845;SDS011;5476;51.540;7.186;2023-03-14T03:36:09;5.67;;;1.80;;
10845;SDS011;5476;51.540;7.186;2023-03-14T03:38:37;6.23;;;1.80;;
10845;SDS011;5476;51.540;7.186;2023-03-14T03:41:04;4.87;;;1.50;;
10845;SDS011;5476;51.540;7.186;2023-03-14T03:43:32;5.17;;;1.37;;
10845;SDS011;5476;51.540;7.186;2023-03-14T03:46:02;6.67;;;1.50;;
10845;SDS011;5476;51.540;7.186;2023-03-14T03:48:29;5.87;;;1.63;;
10845;SDS011;5476;51.540;7.186;2023-03-14T03:50:56;4.17;;;1.47;;
10845;SDS011;5476;51.540;7.186;2023-03-14T03:53:25;7.23;;;1.77;;
10845;SDS011;5476;51.540;7.186;2023-03-14T03:55:52;5.97;;;1.73;;
10845;SDS011;5476;51.540;7.186;2023-03-14T03:58:19;5.47;;;1.67;;
10845;SDS011;5476;51.540;7.186;2023-03-14T04:00:46;6.70;;;1.47;;
10845;SDS011;5476;51.540;7.186;2023-03-14T04:03:14;4.90;;;1.53;;
10845;SDS011;5476;51.540;7.186;2023-03-14T04:05:41;4.40;;;1.40;;
10845;SDS011;5476;51.540;7.186;2023-03-14T04:08:08;7.07;;;1.67;;
10845;SDS011;5476;51.540;7.186;2023-03-14T04:10:36;7.60;;;1.70;;
10845;SDS011;5476;51.540;7.186;2023-03-14T04:13:04;5.80;;;1.13;;
10845;SDS011;5476;51.540;7.186;2023-03-14T04:15:31;4.97;;;1.43;;
10845;SDS011;5476;51.540;7.186;2023-03-14T04:17:58;4.70;;;1.83;;
10845;SDS011;5476;51.540;7.186;2023-03-14T04:20:25;7.40;;;1.67;;
10845;SDS011;5476;51.540;7.186;2023-03-14T04:22:52;5.00;;;1.47;;
10845;SDS011;5476;51.540;7.186;2023-03-14T04:25:20;5.90;;;1.50;;
10845;SDS011;5476;51.540;7.186;2023-03-14T04:27:48;3.63;;;1.30;;
10845;SDS011;5476;51.540;7.186;2023-03-14T04:30:15;5.50;;;1.30;;
10845;SDS011;5476;51.540;7.186;2023-03-14T04:32:43;3.53;;;1.20;;
10845;SDS011;5476;51.540;7.186;2023-03-14T04:35:10;3.73;;;1.30;;
10845;SDS011;5476;51.540;7.186;2023-03-14T04:37:37;2.87;;;1.00;;
10845;SDS011;5476;51.540;7.186;2023-03-14T04:40:05;1.97;;;0.90;;
10845;SDS011;5476;51.540;7.186;2023-03-14T04:42:33;1.60;;;1.00;;
10845;SDS011;5476;51.540;7.186;2023-03-14T04:45:02;2.50;;;1.10;;
10845;SDS011;5476;51.540;7.186;2023-03-14T04:47:29;2.40;;;0.83;;
10845;SDS011;5476;51.540;7.186;2023-03-14T04:49:56;1.57;;;0.90;;
10845;SDS011;5476;51.540;7.186;2023-03-14T04:52:24;2.60;;;0.97;;
10845;SDS011;5476;51.540;7.186;2023-03-14T04:54:51;1.37;;;1.00;;
10845;SDS011;5476;51.540;7.186;2023-03-14T04:57:18;0.40;;;0.40;;
10845;SDS011;5476;51.540;7.186;2023-03-14T04:59:45;1.17;;;0.50;;
10845;SDS011;5476;51.540;7.186;2023-03-14T05:02:14;2.47;;;0.70;;
10845;SDS011;5476;51.540;7.186;2023-03-14T05:04:41;1.97;;;0.47;;
10845;SDS011;5476;51.540;7.186;2023-03-14T05:07:08;2.57;;;0.57;;
10845;SDS011;5476;51.540;7.186;2023-03-14T05:09:35;1.10;;;0.43;;
10845;SDS011;5476;51.540;7.186;2023-03-14T05:12:03;1.87;;;0.60;;
10845;SDS011;5476;51.540;7.186;2023-03-14T05:14:30;1.63;;;0.70;;
10845;SDS011;5476;51.540;7.186;2023-03-14T05:16:58;1.40;;;0.50;;
10845;SDS011;5476;51.540;7.186;2023-03-14T05:19:26;2.03;;;0.57;;
10845;SDS011;5476;51.540;7.186;2023-03-14T05:21:53;0.67;;;0.50;;
10845;SDS011;5476;51.540;7.186;2023-03-14T05:24:21;1.30;;;0.67;;
10845;SDS011;5476;51.540;7.186;2023-03-14T05:26:48;2.03;;;0.60;;
10845;SDS011;5476;51.540;7.186;2023-03-14T05:29:15;0.83;;;0.60;;
10845;SDS011;5476;51.540;7.186;2023-03-14T05:31:42;1.90;;;0.60;;
10845;SDS011;5476;51.540;7.186;2023-03-14T05:34:09;2.43;;;0.70;;
10845;SDS011;5476;51.540;7.186;2023-03-14T05:36:39;3.40;;;0.63;;
10845;SDS011;5476;51.540;7.186;2023-03-14T05:39:06;2.43;;;0.70;;
10845;SDS011;5476;51.540;7.186;2023-03-14T05:41:33;1.10;;;0.73;;
10845;SDS011;5476;51.540;7.186;2023-03-14T05:44:00;2.30;;;0.90;;
10845;SDS011;5476;51.540;7.186;2023-03-14T05:46:28;1.10;;;0.80;;
10845;SDS011;5476;51.540;7.186;2023-03-14T05:48:55;2.20;;;0.50;;
10845;SDS011;5476;51.540;7.186;2023-03-14T05:51:23;2.40;;;0.60;;
10845;SDS011;5476;51.540;7.186;2023-03-14T05:53:51;2.20;;;0.60;;
10845;SDS011;5476;51.540;7.186;2023-03-14T05:56:18;0.87;;;0.57;;
10845;SDS011;5476;51.540;7.186;2023-03-14T05:58:46;2.07;;;0.53;;
10845;SDS011;5476;51.540;7.186;2023-03-14T06:01:13;2.93;;;0.70;;
10845;SDS011;5476;51.540;7.186;2023-03-14T06:03:40;1.03;;;0.67;;
10845;SDS011;5476;51.540;7.186;2023-03-14T06:06:07;1.37;;;0.80;;
10845;SDS011;5476;51.540;7.186;2023-03-14T06:08:34;1.00;;;0.90;;
10845;SDS011;5476;51.540;7.186;2023-03-14T06:11:03;1.10;;;1.00;;
10845;SDS011;5476;51.540;7.186;2023-03-14T06:13:31;1.77;;;1.13;;
10845;SDS011;5476;51.540;7.186;2023-03-14T06:15:58;2.70;;;1.20;;
10845;SDS011;5476;51.540;7.186;2023-03-14T06:18:25;3.27;;;1.30;;
10845;SDS011;5476;51.540;7.186;2023-03-14T06:20:53;2.27;;;1.47;;
10845;SDS011;5476;51.540;7.186;2023-03-14T06:23:21;3.27;;;1.90;;
10845;SDS011;5476;51.540;7.186;2023-03-14T06:25:49;4.13;;;1.90;;
10845;SDS011;5476;51.540;7.186;2023-03-14T06:28:18;4.30;;;1.83;;
10845;SDS011;5476;51.540;7.186;2023-03-14T06:30:45;2.80;;;1.80;;
10845;SDS011;5476;51.540;7.186;2023-03-14T06:33:12;5.43;;;2.10;;
10845;SDS011;5476;51.540;7.186;2023-03-14T06:35:39;3.90;;;1.83;;
10845;SDS011;5476;51.540;7.186;2023-03-14T06:38:06;6.23;;;2.60;;
10845;SDS011;5476;51.540;7.186;2023-03-14T06:40:34;5.47;;;1.83;;
10845;SDS011;5476;51.540;7.186;2023-03-14T06:43:01;2.57;;;1.60;;
10845;SDS011;5476;51.540;7.186;2023-03-14T06:45:29;3.47;;;2.27;;
10845;SDS011;5476;51.540;7.186;2023-03-14T06:47:56;3.30;;;1.90;;
10845;SDS011;5476;51.540;7.186;2023-03-14T06:50:24;3.17;;;1.70;;
10845;SDS011;5476;51.540;7.186;2023-03-14T06:52:51;2.80;;;1.80;;
10845;SDS011;5476;51.540;7.186;2023-03-14T06:55:18;5.73;;;1.80;;
10845;SDS011;5476;51.540;7.186;2023-03-14T06:57:45;3.30;;;1.90;;
10845;SDS011;5476;51.540;7.186;2023-03-14T07:00:13;5.10;;;2.10;;
10845;SDS011;5476;51.540;7.186;2023-03-14T07:02:42;3.47;;;1.67;;
10845;SDS011;5476;51.540;7.186;2023-03-14T07:05:09;3.53;;;1.60;;
10845;SDS011;5476;51.540;7.186;2023-03-14T07:07:36;3.23;;;1.80;;
10845;SDS011;5476;51.540;7.186;2023-03-14T07:10:04;2.07;;;1.37;;
10845;SDS011;5476;51.540;7.186;2023-03-14T07:12:32;3.00;;;1.30;;
10845;SDS011;5476;51.540;7.186;2023-03-14T07:14:59;1.60;;;0.90;;
10845;SDS011;5476;51.540;7.186;2023-03-14T07:17:26;1.60;;;1.30;;
10845;SDS011;5476;51.540;7.186;2023-03-14T07:19:55;1.37;;;0.90;;
10845;SDS011;5476;51.540;7.186;2023-03-14T07:22:22;1.17;;;1.00;;
10845;SDS011;5476;51.540;7.186;2023-03-14T07:24:49;1.90;;;0.90;;
10845;SDS011;5476;51.540;7.186;2023-03-14T07:27:16;1.83;;;1.17;;
10845;SDS011;5476;51.540;7.186;2023-03-14T07:29:43;2.73;;;1.27;;
10845;SDS011;5476;51.540;7.186;2023-03-14T07:32:11;0.77;;;0.77;;
10845;SDS011;5476;51.540;7.186;2023-03-14T07:34:39;1.40;;;0.70;;
10845;SDS011;5476;51.540;7.186;2023-03-14T07:37:08;0.70;;;0.70;;
10845;SDS011;5476;51.540;7.186;2023-03-14T07:39:35;1.77;;;0.60;;
10845;SDS011;5476;51.540;7.186;2023-03-14T07:42:02;1.07;;;0.97;;
10845;SDS011;5476;51.540;7.186;2023-03-14T07:44:29;3.97;;;0.83;;
10845;SDS011;5476;51.540;7.186;2023-03-14T07:46:57;0.70;;;0.70;;
10845;SDS011;5476;51.540;7.186;2023-03-14T07:49:27;2.00;;;0.80;;
10845;SDS011;5476;51.540;7.186;2023-03-14T07:51:54;1.37;;;0.90;;
10845;SDS011;5476;51.540;7.186;2023-03-14T07:54:23;1.10;;;0.80;;
10845;SDS011;5476;51.540;7.186;2023-03-14T07:56:50;1.37;;;0.70;;
10845;SDS011;5476;51.540;7.186;2023-03-14T07:59:18;0.53;;;0.53;;
10845;SDS011;5476;51.540;7.186;2023-03-14T08:01:45;1.00;;;0.70;;
10845;SDS011;5476;51.540;7.186;2023-03-14T08:04:13;1.00;;;0.90;;
10845;SDS011;5476;51.540;7.186;2023-03-14T08:06:40;0.80;;;0.80;;
10845;SDS011;5476;51.540;7.186;2023-03-14T08:09:07;0.57;;;0.57;;
10845;SDS011;5476;51.540;7.186;2023-03-14T08:11:36;1.37;;;0.73;;
10845;SDS011;5476;51.540;7.186;2023-03-14T08:14:04;2.00;;;0.80;;
10845;SDS011;5476;51.540;7.186;2023-03-14T08:16:31;0.70;;;0.70;;
10845;SDS011;5476;51.540;7.186;2023-03-14T08:18:58;1.10;;;0.80;;
10845;SDS011;5476;51.540;7.186;2023-03-14T08:21:25;2.37;;;0.80;;
10845;SDS011;5476;51.540;7.186;2023-03-14T08:23:53;1.43;;;1.00;;
10845;SDS011;5476;51.540;7.186;2023-03-14T08:26:20;2.40;;;1.13;;
10845;SDS011;5476;51.540;7.186;2023-03-14T08:28:48;2.03;;;1.00;;
10845;SDS011;5476;51.540;7.186;2023-03-14T08:31:15;1.07;;;1.03;;
10845;SDS011;5476;51.540;7.186;2023-03-14T08:33:44;2.07;;;1.40;;
10845;SDS011;5476;51.540;7.186;2023-03-14T08:36:11;1.43;;;1.30;;
10845;SDS011;5476;51.540;7.186;2023-03-14T08:38:38;1.40;;;1.30;;
10845;SDS011;5476;51.540;7.186;2023-03-14T08:41:07;1.10;;;1.00;;
10845;SDS011;5476;51.540;7.186;2023-03-14T08:43:35;1.40;;;1.30;;
10845;SDS011;5476;51.540;7.186;2023-03-14T08:46:04;1.47;;;1.00;;
10845;SDS011;5476;51.540;7.186;2023-03-14T08:48:31;1.33;;;1.27;;
10845;SDS011;5476;51.540;7.186;2023-03-14T08:51:03;1.80;;;1.13;;
10845;SDS011;5476;51.540;7.186;2023-03-14T08:53:30;1.37;;;1.20;;
10845;SDS011;5476;51.540;7.186;2023-03-14T08:55:57;2.13;;;1.47;;
10845;SDS011;5476;51.540;7.186;2023-03-14T08:58:25;1.33;;;1.23;;
10845;SDS011;5476;51.540;7.186;2023-03-14T09:00:52;1.30;;;1.20;;
10845;SDS011;5476;51.540;7.186;2023-03-14T09:03:20;1.60;;;1.50;;
10845;SDS011;5476;51.540;7.186;2023-03-14T09:05:48;1.40;;;1.30;;
10845;SDS011;5476;51.540;7.186;2023-03-14T09:08:16;1.30;;;1.20;;
10845;SDS011;5476;51.540;7.186;2023-03-14T09:10:44;1.80;;;1.30;;
10845;SDS011;5476;51.540;7.186;2023-03-14T09:13:11;1.37;;;1.27;;
10845;SDS011;5476;51.540;7.186;2023-03-14T09:15:38;1.73;;;1.00;;
10845;SDS011;5476;51.540;7.186;2023-03-14T09:18:07;1.40;;;1.10;;
10845;SDS011;5476;51.540;7.186;2023-03-14T09:20:35;1.37;;;1.27;;
10845;SDS011;5476;51.540;7.186;2023-03-14T09:23:03;1.43;;;1.13;;
10845;SDS011;5476;51.540;7.186;2023-03-14T09:25:30;1.63;;;1.27;;
10845;SDS011;5476;51.540;7.186;2023-03-14T09:27:57;1.43;;;1.33;;
10845;SDS011;5476;51.540;7.186;2023-03-14T09:30:24;1.83;;;1.30;;
10845;SDS011;5476;51.540;7.186;2023-03-14T09:32:51;1.50;;;1.30;;
10845;SDS011;5476;51.540;7.186;2023-03-14T09:35:18;2.17;;;1.20;;
10845;SDS011;5476;51.540;7.186;2023-03-14T09:37:47;0.80;;;0.80;;
10845;SDS011;5476;51.540;7.186;2023-03-14T09:40:15;1.13;;;0.60;;
10845;SDS011;5476;51.540;7.186;2023-03-14T09:42:43;0.50;;;0.40;;
10845;SDS011;5476;51.540;7.186;2023-03-14T09:45:11;0.83;;;0.60;;
10845;SDS011;5476;51.540;7.186;2023-03-14T09:47:39;0.67;;;0.50;;
10845;SDS011;5476;51.540;7.186;2023-03-14T09:50:10;1.93;;;0.67;;
10845;SDS011;5476;51.540;7.186;2023-03-14T09:52:38;1.07;;;0.60;;
10845;SDS011;5476;51.540;7.186;2023-03-14T09:55:11;2.37;;;0.90;;
10845;SDS011;5476;51.540;7.186;2023-03-14T09:57:39;2.83;;;0.90;;
10845;SDS011;5476;51.540;7.186;2023-03-14T10:00:12;0.90;;;0.60;;
10845;SDS011;5476;51.540;7.186;2023-03-14T10:02:42;1.40;;;0.80;;
10845;SDS011;5476;51.540;7.186;2023-03-14T10:05:14;0.93;;;0.80;;
10845;SDS011;5476;51.540;7.186;2023-03-14T10:07:43;1.27;;;0.70;;
10845;SDS011;5476;51.540;7.186;2023-03-14T10:10:13;0.73;;;0.73;;
10845;SDS011;5476;51.540;7.186;2023-03-14T10:12:45;2.90;;;1.00;;
10845;SDS011;5476;51.540;7.186;2023-03-14T10:15:13;1.17;;;0.70;;
10845;SDS011;5476;51.540;7.186;2023-03-14T10:17:48;1.03;;;0.80;;
10845;SDS011;5476;51.540;7.186;2023-03-14T10:20:28;0.97;;;0.80;;
10845;SDS011;5476;51.540;7.186;2023-03-14T10:22:58;3.30;;;1.00;;
10845;SDS011;5476;51.540;7.186;2023-03-14T10:25:27;0.83;;;0.83;;
10845;SDS011;5476;51.540;7.186;2023-03-14T10:27:56;2.10;;;1.13;;
10845;SDS011;5476;51.540;7.186;2023-03-14T10:30:27;2.33;;;0.90;;
10845;SDS011;5476;51.540;7.186;2023-03-14T10:33:03;4.53;;;1.00;;
10845;SDS011;5476;51.540;7.186;2023-03-14T10:35:35;1.30;;;0.67;;
10845;SDS011;5476;51.540;7.186;2023-03-14T10:38:02;1.00;;;0.63;;
10845;SDS011;5476;51.540;7.186;2023-03-14T10:40:32;1.33;;;0.83;;
10845;SDS011;5476;51.540;7.186;2023-03-14T10:43:03;1.37;;;0.80;;
10845;SDS011;5476;51.540;7.186;2023-03-14T10:45:32;1.77;;;1.00;;
10845;SDS011;5476;51.540;7.186;2023-03-14T10:48:20;1.50;;;1.00;;
10845;SDS011;5476;51.540;7.186;2023-03-14T10:50:49;2.73;;;1.10;;
10845;SDS011;5476;51.540;7.186;2023-03-14T10:53:17;2.53;;;1.30;;
10845;SDS011;5476;51.540;7.186;2023-03-14T10:55:46;2.17;;;0.90;;
10845;SDS011;5476;51.540;7.186;2023-03-14T10:58:18;1.93;;;1.10;;
10845;SDS011;5476;51.540;7.186;2023-03-14T11:00:45;2.10;;;1.10;;
10845;SDS011;5476;51.540;7.186;2023-03-14T11:03:18;1.07;;;0.90;;
10845;SDS011;5476;51.540;7.186;2023-03-14T11:05:47;2.43;;;0.80;;
10845;SDS011;5476;51.540;7.186;2023-03-14T11:08:20;1.47;;;0.97;;
10845;SDS011;5476;51.540;7.186;2023-03-14T11:10:55;2.33;;;1.00;;
10845;SDS011;5476;51.540;7.186;2023-03-14T11:13:25;2.03;;;1.20;;
10845;SDS011;5476;51.540;7.186;2023-03-14T11:16:01;2.00;;;1.00;;
10845;SDS011;5476;51.540;7.186;2023-03-14T11:18:43;1.43;;;1.00;;
10845;SDS011;5476;51.540;7.186;2023-03-14T11:21:13;1.33;;;0.77;;
10845;SDS011;5476;51.540;7.186;2023-03-14T11:23:48;0.80;;;0.73;;
10845;SDS011;5476;51.540;7.186;2023-03-14T11:26:28;3.67;;;0.80;;
10845;SDS011;5476;51.540;7.186;2023-03-14T11:29:02;1.07;;;0.57;;
10845;SDS011;5476;51.540;7.186;2023-03-14T11:31:35;2.07;;;0.80;;
10845;SDS011;5476;51.540;7.186;2023-03-14T11:34:05;1.20;;;0.80;;
10845;SDS011;5476;51.540;7.186;2023-03-14T11:36:36;0.60;;;0.60;;
10845;SDS011;5476;51.540;7.186;2023-03-14T11:39:07;0.80;;;0.80;;
10845;SDS011;5476;51.540;7.186;2023-03-14T11:41:41;1.83;;;0.60;;
10845;SDS011;5476;51.540;7.186;2023-03-14T11:44:10;0.80;;;0.60;;
10845;SDS011;5476;51.540;7.186;2023-03-14T11:46:45;1.63;;;0.80;;
10845;SDS011;5476;51.540;7.186;2023-03-14T11:49:24;4.07;;;2.07;;
10845;SDS011;5476;51.540;7.186;2023-03-14T11:51:59;2.17;;;1.50;;
10845;SDS011;5476;51.540;7.186;2023-03-14T11:54:31;1.53;;;0.90;;
10845;SDS011;5476;51.540;7.186;2023-03-14T11:57:04;1.03;;;0.93;;
10845;SDS011;5476;51.540;7.186;2023-03-14T11:59:33;1.70;;;0.80;;
10845;SDS011;5476;51.540;7.186;2023-03-14T12:02:09;0.80;;;0.60;;
10845;SDS011;5476;51.540;7.186;2023-03-14T12:04:49;2.10;;;1.00;;
10845;SDS011;5476;51.540;7.186;2023-03-14T12:07:23;1.27;;;1.00;;
10845;SDS011;5476;51.540;7.186;2023-03-14T12:09:54;2.80;;;1.10;;
10845;SDS011;5476;51.540;7.186;2023-03-14T12:12:25;2.30;;;0.80;;
10845;SDS011;5476;51.540;7.186;2023-03-14T12:14:56;3.20;;;0.93;;
10845;SDS011;5476;51.540;7.186;2023-03-14T12:17:27;4.27;;;1.10;;
10845;SDS011;5476;51.540;7.186;2023-03-14T12:20:02;2.40;;;0.83;;
10845;SDS011;5476;51.540;7.186;2023-03-14T12:22:33;2.60;;;0.90;;
10845;SDS011;5476;51.540;7.186;2023-03-14T12:25:05;19.53;;;12.53;;
10845;SDS011;5476;51.540;7.186;2023-03-14T12:27:41;4.07;;;1.73;;
10845;SDS011;5476;51.540;7.186;2023-03-14T12:30:15;4.37;;;1.40;;
10845;SDS011;5476;51.540;7.186;2023-03-14T12:32:58;3.97;;;1.50;;
10845;SDS011;5476;51.540;7.186;2023-03-14T12:36:02;2.33;;;1.30;;
10845;SDS011;5476;51.540;7.186;2023-03-14T12:38:46;2.83;;;1.20;;
10845;SDS011;5476;51.540;7.186;2023-03-14T12:41:17;3.67;;;1.23;;
10845;SDS011;5476;51.540;7.186;2023-03-14T12:43:47;3.23;;;1.40;;
10845;SDS011;5476;51.540;7.186;2023-03-14T12:46:18;7.83;;;1.80;;
10845;SDS011;5476;51.540;7.186;2023-03-14T12:48:46;4.63;;;1.47;;
10845;SDS011;5476;51.540;7.186;2023-03-14T12:51:14;4.87;;;1.50;;
10845;SDS011;5476;51.540;7.186;2023-03-14T12:53:45;4.50;;;1.40;;
10845;SDS011;5476;51.540;7.186;2023-03-14T12:56:21;4.60;;;1.30;;
10845;SDS011;5476;51.540;7.186;2023-03-14T12:58:54;3.60;;;1.33;;
10845;SDS011;5476;51.540;7.186;2023-03-14T13:01:25;2.57;;;0.77;;
10845;SDS011;5476;51.540;7.186;2023-03-14T13:03:53;4.33;;;1.27;;
10845;SDS011;5476;51.540;7.186;2023-03-14T13:12:08;5.47;;;1.40;;
10845;SDS011;5476;51.540;7.186;2023-03-14T13:14:40;5.20;;;1.23;;
10845;SDS011;5476;51.540;7.186;2023-03-14T13:17:09;9.57;;;2.13;;
10845;SDS011;5476;51.540;7.186;2023-03-14T13:19:37;6.57;;;1.90;;
10845;SDS011;5476;51.540;7.186;2023-03-14T13:22:06;7.70;;;2.23;;
10845;SDS011;5476;51.540;7.186;2023-03-14T13:24:39;7.07;;;1.73;;
10845;SDS011;5476;51.540;7.186;2023-03-14T13:27:08;5.70;;;1.90;;
10845;SDS011;5476;51.540;7.186;2023-03-14T13:29:42;8.37;;;1.90;;
10845;SDS011;5476;51.540;7.186;2023-03-14T13:32:15;6.80;;;2.03;;
10845;SDS011;5476;51.540;7.186;2023-03-14T13:34:43;9.57;;;2.20;;
10845;SDS011;5476;51.540;7.186;2023-03-14T13:37:14;5.43;;;1.57;;
10845;SDS011;5476;51.540;7.186;2023-03-14T13:39:42;10.17;;;2.00;;
10845;SDS011;5476;51.540;7.186;2023-03-14T13:42:10;5.83;;;1.97;;
10845;SDS011;5476;51.540;7.186;2023-03-14T13:44:40;8.60;;;2.50;;
10845;SDS011;5476;51.540;7.186;2023-03-14T13:47:11;8.30;;;2.83;;
10845;SDS011;5476;51.540;7.186;2023-03-14T13:49:39;10.17;;;1.97;;
10845;SDS011;5476;51.540;7.186;2023-03-14T13:52:21;11.97;;;2.30;;
10845;SDS011;5476;51.540;7.186;2023-03-14T13:54:48;10.60;;;2.83;;
10845;SDS011;5476;51.540;7.186;2023-03-14T13:57:19;11.13;;;2.53;;
10845;SDS011;5476;51.540;7.186;2023-03-14T13:59:57;11.93;;;2.37;;
10845;SDS011;5476;51.540;7.186;2023-03-14T14:02:26;12.60;;;2.63;;
10845;SDS011;5476;51.540;7.186;2023-03-14T14:04:55;11.63;;;2.20;;
10845;SDS011;5476;51.540;7.186;2023-03-14T14:07:22;11.90;;;2.20;;
10845;SDS011;5476;51.540;7.186;2023-03-14T14:09:52;11.57;;;3.07;;
10845;SDS011;5476;51.540;7.186;2023-03-14T14:12:20;8.30;;;2.43;;
10845;SDS011;5476;51.540;7.186;2023-03-14T14:14:51;11.80;;;2.40;;
10845;SDS011;5476;51.540;7.186;2023-03-14T14:17:19;14.83;;;2.53;;
10845;SDS011;5476;51.540;7.186;2023-03-14T14:19:49;9.80;;;2.27;;
10845;SDS011;5476;51.540;7.186;2023-03-14T14:22:17;9.90;;;2.17;;
10845;SDS011;5476;51.540;7.186;2023-03-14T14:24:45;11.60;;;2.60;;
10845;SDS011;5476;51.540;7.186;2023-03-14T14:27:13;13.33;;;2.43;;
10845;SDS011;5476;51.540;7.186;2023-03-14T14:29:40;14.47;;;2.20;;
10845;SDS011;5476;51.540;7.186;2023-03-14T14:32:11;11.47;;;1.90;;
10845;SDS011;5476;51.540;7.186;2023-03-14T14:34:39;11.33;;;2.00;;
10845;SDS011;5476;51.540;7.186;2023-03-14T14:37:17;11.53;;;2.20;;
10845;SDS011;5476;51.540;7.186;2023-03-14T14:39:45;8.57;;;2.20;;
10845;SDS011;5476;51.540;7.186;2023-03-14T14:42:13;14.30;;;2.30;;
10845;SDS011;5476;51.540;7.186;2023-03-14T14:44:41;11.70;;;2.27;;
10845;SDS011;5476;51.540;7.186;2023-03-14T14:47:12;9.90;;;1.80;;
10845;SDS011;5476;51.540;7.186;2023-03-14T14:49:40;9.67;;;2.00;;
10845;SDS011;5476;51.540;7.186;2023-03-14T14:52:09;8.80;;;1.70;;
10845;SDS011;5476;51.540;7.186;2023-03-14T14:54:42;8.67;;;2.00;;
10845;SDS011;5476;51.540;7.186;2023-03-14T14:57:17;9.87;;;1.90;;
10845;SDS011;5476;51.540;7.186;2023-03-14T14:59:45;7.80;;;2.10;;
10845;SDS011;5476;51.540;7.186;2023-03-14T15:02:27;7.37;;;1.80;;
10845;SDS011;5476;51.540;7.186;2023-03-14T15:04:55;7.90;;;1.73;;
10845;SDS011;5476;51.540;7.186;2023-03-14T15:07:23;4.20;;;1.30;;
10845;SDS011;5476;51.540;7.186;2023-03-14T15:09:52;6.73;;;1.70;;
10845;SDS011;5476;51.540;7.186;2023-03-14T15:12:19;7.80;;;1.87;;
10845;SDS011;5476;51.540;7.186;2023-03-14T15:14:49;5.60;;;1.80;;
10845;SDS011;5476;51.540;7.186;2023-03-14T15:17:16;7.40;;;1.80;;
10845;SDS011;5476;51.540;7.186;2023-03-14T15:19:44;5.87;;;1.47;;
10845;SDS011;5476;51.540;7.186;2023-03-14T15:22:11;7.30;;;1.80;;
10845;SDS011;5476;51.540;7.186;2023-03-14T15:24:40;6.50;;;2.13;;